• Join FlightAware (Why Join?)
  • Login
  • US Flag 
07:08AM EDT


 

Airport Tracker/Info


-or-


 

Live Flight TrackerFlight Track Log ✈ N317FL ✈ 08-May-2013 ✈ KBDU - KTEB

Flight Track Log - Related Links

Times and Time Zones

All times are in EDT time to prevent confusion due to time zone crossing. See the N317FL flight status page for this flight to view local times or setup timezone preferences in your user account.

Time Position Orientation Groundspeed Altitude Reporting Facility
EDT Latitude Longitude Course Direction KTS MPH feet Rate Location/Type
07:43AM 40.0390 -105.2000 90° East 152 175 6,300  Level FlightAware
07:44AM 40.0390 -105.1750 90° East 178 205 7,100 2,160 Climbing FlightAware
07:44AM 40.0370 -105.1390 94° East 203 234 8,300 2,700 Climbing FlightAware
07:45AM 40.0400 -105.0820 86° East 229 264 10,500 3,000 Climbing FlightAware
07:46AM 40.0480 -105.0260 79° East 246 283 12,600 3,060 Climbing FlightAware
07:46AM 40.0570 -104.9550 81° East 268 308 14,900 3,240 Climbing FlightAware
07:46AM 40.0581 -104.9440 83° East 271 312 15,300 3,000 Climbing FlightAware ADS-B
07:47AM 40.0642 -104.8920 81° East 289 333 16,700 2,520 Climbing FlightAware ADS-B
07:48AM 40.0718 -104.8270 81° East 309 356 18,200 2,640 Climbing FlightAware ADS-B
07:48AM 40.0783 -104.7700 82° East 316 364 19,700 3,000 Climbing FlightAware ADS-B
07:48AM 40.0836 -104.7240 81° East 318 366 20,900 2,820 Climbing FlightAware ADS-B
07:49AM 40.0901 -104.6660 82° East 317 365 22,300 2,640 Climbing FlightAware ADS-B
07:49AM 40.0967 -104.6090 81° East 323 372 23,600 2,460 Climbing FlightAware ADS-B
07:50AM 40.1034 -104.5500 82° East 330 380 24,800 2,280 Climbing FlightAware ADS-B
07:50AM 40.1101 -104.4900 82° East 332 382 25,900 2,220 Climbing FlightAware ADS-B
07:51AM 40.1168 -104.4300 82° East 336 387 27,100 1,920 Climbing FlightAware ADS-B
07:51AM 40.1237 -104.3680 82° East 349 402 27,900 1,620 Climbing FlightAware ADS-B
07:52AM 40.1304 -104.3070 82° East 360 414 28,700 1,620 Climbing FlightAware ADS-B
07:52AM 40.1378 -104.2410 82° East 370 426 29,500 1,560 Climbing FlightAware ADS-B
07:53AM 40.1452 -104.1730 82° East 380 437 30,300 1,800 Climbing FlightAware ADS-B
07:53AM 40.1527 -104.1050 82° East 385 443 31,300 2,160 Climbing FlightAware ADS-B
07:54AM 40.1603 -104.0350 82° East 379 436 32,500 2,340 Climbing FlightAware ADS-B
07:54AM 40.1676 -103.9670 82° East 371 427 33,700 2,340 Climbing FlightAware ADS-B
07:55AM 40.1746 -103.9010 82° East 360 414 34,900 2,280 Climbing FlightAware ADS-B
07:55AM 40.1815 -103.8370 82° East 351 404 36,000 1,800 Climbing FlightAware ADS-B
07:56AM 40.1883 -103.7740 82° East 352 405 36,700 1,200 Climbing FlightAware ADS-B
07:56AM 40.1951 -103.7090 82° East 359 413 37,200 960 Climbing FlightAware ADS-B
07:57AM 40.2021 -103.6430 82° East 364 419 37,700 1,020 Climbing FlightAware ADS-B
07:57AM 40.2091 -103.5760 82° East 370 426 38,300 1,080 Climbing FlightAware ADS-B
07:58AM 40.2160 -103.5090 82° East 371 427 38,800 960 Climbing FlightAware ADS-B
07:58AM 40.2230 -103.4410 82° East 372 428 39,300 960 Climbing FlightAware ADS-B
07:59AM 40.2299 -103.3740 82° East 373 429 39,800 960 Climbing FlightAware ADS-B
07:59AM 40.2368 -103.3070 82° East 371 427 40,300 1,080 Climbing FlightAware ADS-B
08:00AM 40.2436 -103.2400 82° East 366 421 40,900 1,200 Climbing FlightAware ADS-B
08:01AM 40.2509 -103.1680 82° East 361 415 41,600 1,140 Climbing FlightAware ADS-B
08:01AM 40.2574 -103.1020 83° East 359 413 42,100 960 Climbing FlightAware ADS-B
08:02AM 40.2642 -103.0350 82° East 355 409 42,600 960 Climbing FlightAware ADS-B
08:02AM 40.2705 -102.9710 83° East 351 404 43,100 960 Climbing FlightAware ADS-B
08:03AM 40.2767 -102.9070 83° East 346 398 43,600 660 Climbing FlightAware ADS-B
08:03AM 40.2829 -102.8450 83° East 348 400 43,800 480 Climbing FlightAware ADS-B
08:04AM 40.2890 -102.7810 83° East 350 403 44,100 480 Climbing FlightAware ADS-B
08:04AM 40.2952 -102.7180 83° East 351 404 44,300 300 Climbing FlightAware ADS-B
08:05AM 40.3012 -102.6540 83° East 354 407 44,400 180 Climbing FlightAware ADS-B
08:05AM 40.3076 -102.5890 83° East 361 415 44,500 180 Climbing FlightAware ADS-B
08:06AM 40.3138 -102.5230 83° East 369 425 44,600 60 Climbing FlightAware ADS-B
08:06AM 40.3202 -102.4550 83° East 376 433 44,600 60 Level FlightAware ADS-B
08:07AM 40.3267 -102.3860 83° East 381 438 44,700 180 Climbing FlightAware ADS-B
08:07AM 40.3333 -102.3160 83° East 387 445 44,800 60 Climbing FlightAware ADS-B
08:08AM 40.3399 -102.2450 83° East 393 452 44,800 60 Level FlightAware ADS-B
08:08AM 40.3465 -102.1730 83° East 399 459 44,900 60 Climbing FlightAware ADS-B
08:09AM 40.3531 -102.1010 83° East 404 465 44,900 60 Level FlightAware ADS-B
08:09AM 40.3599 -102.0260 83° East 409 471 45,000 60 Climbing FlightAware ADS-B
08:10AM 40.3666 -101.9520 83° East 412 474 45,000  Level FlightAware ADS-B
08:10AM 40.3732 -101.8770 83° East 414 476 45,000  Level FlightAware ADS-B
08:11AM 40.3801 -101.8010 83° East 415 478 45,000  Level FlightAware ADS-B
08:11AM 40.3866 -101.7260 83° East 416 479 45,000  Level FlightAware ADS-B
08:12AM 40.3932 -101.6500 83° East 418 481 45,000  Level FlightAware ADS-B
08:12AM 40.3998 -101.5740 83° East 419 482 45,000  Level FlightAware ADS-B
08:13AM 40.4065 -101.4970 83° East 420 483 45,000  Level FlightAware ADS-B
08:13AM 40.4130 -101.4200 84° East 420 483 45,000  Level FlightAware ADS-B
08:14AM 40.4195 -101.3430 84° East 421 484 45,000  Level FlightAware ADS-B
08:14AM 40.4260 -101.2670 84° East 421 484 45,000  Level FlightAware ADS-B
08:15AM 40.4323 -101.1900 84° East 421 484 45,000  Level FlightAware ADS-B
08:15AM 40.4387 -101.1130 84° East 421 484 45,000  Level FlightAware ADS-B
08:16AM 40.4467 -101.0150 84° East 422 486 45,000  Level FlightAware ADS-B
08:16AM 40.4529 -100.9390 84° East 421 484 45,000  Level FlightAware ADS-B
08:17AM 40.4589 -100.8750 83° East 420 483 45,000  Level FlightAware ADS-B
08:17AM 40.4693 -100.8000 80° East 419 482 45,000  Level FlightAware ADS-B
08:18AM 40.4799 -100.7240 80° East 418 481 45,000  Level FlightAware ADS-B
08:18AM 40.4898 -100.6490 80° East 419 482 45,000  Level FlightAware ADS-B
08:19AM 40.4996 -100.5730 80° East 418 481 45,000  Level FlightAware ADS-B
08:19AM 40.5036 -100.5336 80° East 418 481 45,000  Level Denver Center
08:20AM 40.5222 -100.3906 80° East 419 482 45,000  Level Denver Center
08:21AM 40.5400 -100.2486 81° East 415 478 45,000  Level Denver Center
08:22AM 40.5603 -100.0819 81° East 416 479 45,000  Level Denver Center
08:23AM 40.5786 -99.9403 80° East 414 476 45,000  Level Denver Center
08:24AM 40.5967 -99.7883 81° East 415 478 45,000  Level Denver Center
08:25AM 40.6150 -99.6400 81° East 414 476 45,000  Level Denver Center
08:26AM 40.6325 -99.4914 81° East 411 473 45,000  Level Denver Center
08:27AM 40.6492 -99.3422 82° East 413 475 45,000  Level Denver Center
08:28AM 40.6672 -99.1933 81° East 414 476 45,000  Level Denver Center
08:29AM 40.6781 -99.1050 81° East 413 475 45,000  Level Minneapolis Center
08:30AM 40.6953 -98.9547 81° East 415 478 45,000  Level Minneapolis Center
08:31AM 40.7108 -98.8044 82° East 416 479 45,000  Level Minneapolis Center
08:32AM 40.7283 -98.6539 81° East 418 481 45,000  Level Minneapolis Center
08:33AM 40.7444 -98.5031 82° East 419 482 45,000  Level Minneapolis Center
08:34AM 40.7614 -98.3525 82° East 419 482 45,000  Level Minneapolis Center
08:35AM 40.7772 -98.2033 82° East 415 478 45,000  Level Minneapolis Center
08:36AM 40.7958 -98.0239 82° East 414 476 45,000  Level Minneapolis Center
08:37AM 40.8114 -97.8742 82° East 414 476 45,000  Level Minneapolis Center
08:38AM 40.8275 -97.7228 82° East 416 479 45,000  Level Minneapolis Center
08:39AM 40.8425 -97.5725 82° East 415 478 45,000  Level Minneapolis Center
08:40AM 40.8575 -97.4225 82° East 414 476 45,000  Level Minneapolis Center
08:41AM 40.8758 -97.2364 83° East 414 476 45,000  Level Minneapolis Center
08:42AM 40.8903 -97.0858 83° East 414 476 45,000  Level Minneapolis Center
08:43AM 40.9042 -96.9358 83° East 414 476 45,000  Level Minneapolis Center
08:44AM 40.9192 -96.7856 82° East 413 475 45,000  Level Minneapolis Center
08:50AM 41.0070 -96.1340 82° East 45,000  Level FlightAware
08:50AM 41.0100 -96.1110 80° East 419 482 45,000  Level FlightAware
08:51AM 41.0230 -96.0130 80° East 419 482 45,000  Level FlightAware
08:52AM 41.0340 -95.9270 80° East 419 482 45,000  Level FlightAware
08:52AM 41.0460 -95.8410 79° East 419 482 45,000  Level FlightAware
08:53AM 41.0600 -95.7340 80° East 419 482 45,000  Level FlightAware
08:54AM 41.0720 -95.6470 80° East 419 482 45,000  Level FlightAware
08:55AM 41.0830 -95.5610 80° East 419 482 45,000  Level FlightAware
08:55AM 41.0950 -95.4750 79° East 419 482 45,000  Level FlightAware
08:56AM 41.1550 -94.9820 81° East 423 487 45,000  Level FlightAware
08:57AM 41.1700 -94.8630 80° East 424 488 45,000  Level FlightAware
08:57AM 41.1820 -94.7590 81° East 424 488 45,000  Level FlightAware
08:58AM 41.1960 -94.6460 81° East 425 489 45,000  Level FlightAware
08:59AM 41.2080 -94.5430 81° East 425 489 45,000  Level FlightAware
08:59AM 41.2210 -94.4410 80° East 425 489 45,000  Level FlightAware
09:00AM 41.2410 -94.3400 75° East 425 489 45,000  Level FlightAware
09:01AM 41.2630 -94.2220 76° East 425 489 45,000  Level FlightAware
09:02AM 41.2820 -94.1210 76° East 425 489 45,000  Level FlightAware
09:02AM 41.3020 -94.0100 76° East 423 487 45,000  Level FlightAware
09:03AM 41.3200 -93.9130 76° East 424 488 45,000  Level FlightAware
09:04AM 41.3400 -93.8030 76° East 424 488 45,000  Level FlightAware
09:04AM 41.3570 -93.7120 76° East 424 488 45,000  Level FlightAware
09:05AM 41.3810 -93.5780 77° East 424 488 45,000  Level FlightAware
09:06AM 41.3990 -93.4760 77° East 423 487 45,000  Level FlightAware
09:07AM 41.4200 -93.3610 76° East 423 487 45,000  Level FlightAware
09:07AM 41.4380 -93.2610 76° East 423 487 45,000  Level FlightAware
09:08AM 41.4560 -93.1560 77° East 422 486 45,000  Level FlightAware
09:09AM 41.4750 -93.0470 77° East 422 486 45,000  Level FlightAware
09:09AM 41.4930 -92.9450 77° East 423 487 45,000  Level FlightAware
09:10AM 41.5110 -92.8450 76° East 422 486 45,000  Level FlightAware
09:11AM 41.5310 -92.7280 77° East 424 488 45,000  Level FlightAware
09:11AM 41.5490 -92.6240 77° East 424 488 45,000  Level FlightAware
09:12AM 41.5680 -92.5120 77° East 424 488 45,000  Level FlightAware
09:13AM 41.5850 -92.4110 77° East 424 488 45,000  Level FlightAware
09:13AM 41.6020 -92.3100 77° East 424 488 45,000  Level FlightAware
09:14AM 41.6220 -92.1920 77° East 425 489 45,000  Level FlightAware
09:15AM 41.6390 -92.0880 78° East 423 487 45,000  Level FlightAware
09:16AM 41.6570 -91.9790 78° East 423 487 45,000  Level FlightAware
09:16AM 41.6750 -91.8740 77° East 423 487 45,000  Level FlightAware
09:17AM 41.6910 -91.7720 78° East 423 487 45,000  Level FlightAware
09:18AM 41.7110 -91.6540 77° East 423 487 45,000  Level FlightAware
09:18AM 41.7260 -91.5600 78° East 423 487 45,000  Level FlightAware
09:19AM 41.7450 -91.4410 78° East 423 487 45,000  Level FlightAware
09:20AM 41.7590 -91.3530 78° East 424 488 45,000  Level FlightAware
09:20AM 41.7750 -91.2500 78° East 424 488 45,000  Level FlightAware
09:21AM 41.7900 -91.1570 78° East 424 488 45,000  Level FlightAware
09:22AM 41.8010 -91.0520 82° East 425 489 45,000  Level FlightAware
09:22AM 41.8110 -90.9340 83° East 424 488 45,000  Level FlightAware
09:23AM 41.8200 -90.8340 83° East 425 489 45,000  Level FlightAware
09:24AM 41.8290 -90.7240 84° East 424 488 45,000  Level FlightAware
09:24AM 41.8380 -90.6150 84° East 424 488 45,000  Level FlightAware
09:25AM 41.8470 -90.5050 84° East 424 488 45,000  Level FlightAware
09:26AM 41.8560 -90.3850 84° East 424 488 45,000  Level FlightAware
09:27AM 41.8650 -90.2800 83° East 424 488 45,000  Level FlightAware
09:27AM 41.8730 -90.1750 84° East 424 488 45,000  Level FlightAware
09:28AM 41.8820 -90.0620 84° East 424 488 45,000  Level FlightAware
09:29AM 41.8900 -89.9560 84° East 425 489 45,000  Level FlightAware
09:29AM 41.8970 -89.8530 85° East 424 488 45,000  Level FlightAware
09:30AM 41.9050 -89.7470 84° East 424 488 45,000  Level FlightAware
09:31AM 41.9150 -89.6130 84° East 423 487 45,000  Level FlightAware
09:31AM 41.9220 -89.5080 85° East 423 487 45,000  Level FlightAware
09:32AM 41.9300 -89.3930 85° East 423 487 45,000  Level FlightAware
09:33AM 41.9380 -89.2880 84° East 422 486 45,000  Level FlightAware
09:33AM 41.9430 -89.2120 85° East 423 487 45,000  Level FlightAware
09:34AM 41.9500 -89.1060 85° East 422 486 45,000  Level FlightAware
09:35AM 41.9580 -88.9940 84° East 423 487 45,000  Level FlightAware
09:35AM 41.9650 -88.8870 85° East 423 487 45,000  Level FlightAware
09:36AM 41.9720 -88.7830 85° East 424 488 45,000  Level FlightAware
09:37AM 41.9790 -88.6630 85° East 424 488 45,000  Level FlightAware
09:38AM 41.9860 -88.5570 85° East 424 488 45,000  Level FlightAware
09:38AM 41.9930 -88.4470 85° East 425 489 45,000  Level FlightAware
09:39AM 42.0000 -88.3310 85° East 425 489 45,000  Level FlightAware
09:40AM 42.0060 -88.2290 85° East 425 489 45,000  Level FlightAware
09:40AM 42.0130 -88.1090 85° East 425 489 45,000  Level FlightAware
09:41AM 42.0190 -88.0040 86° East 426 490 45,000  Level FlightAware
09:42AM 42.0260 -87.8890 85° East 426 490 45,000  Level FlightAware
09:42AM 42.0320 -87.7820 86° East 426 490 45,000  Level FlightAware
09:43AM 42.0380 -87.6760 86° East 427 491 45,000  Level FlightAware
09:44AM 42.0440 -87.5550 86° East 427 491 45,000  Level FlightAware
09:45AM 42.0500 -87.4570 85° East 428 493 45,000  Level FlightAware
09:45AM 42.0560 -87.3310 86° East 428 493 45,000  Level FlightAware
09:46AM 42.0610 -87.2480 85° East 427 491 45,000  Level FlightAware
09:47AM 42.0670 -87.1300 86° East 428 493 45,000  Level FlightAware
09:47AM 42.0720 -87.0250 86° East 427 491 45,000  Level FlightAware
09:48AM 42.0780 -86.8960 86° East 426 490 45,000  Level FlightAware
09:49AM 42.0840 -86.7750 86° East 426 490 45,000  Level FlightAware
09:49AM 42.0890 -86.6690 86° East 426 490 45,000  Level FlightAware
09:50AM 42.0940 -86.5600 86° East 426 490 45,000  Level FlightAware
09:51AM 42.0990 -86.4400 87° East 426 490 45,000  Level FlightAware
09:52AM 42.1040 -86.3370 86° East 425 489 45,000  Level FlightAware
09:52AM 42.1090 -86.2200 87° East 424 488 45,000  Level FlightAware
09:53AM 42.1130 -86.1130 87° East 423 487 45,000  Level FlightAware
09:54AM 42.1180 -85.9970 87° East 423 487 45,000  Level FlightAware
09:54AM 42.1220 -85.8880 87° East 422 486 45,000  Level FlightAware
09:55AM 42.1260 -85.7860 87° East 421 484 45,000  Level FlightAware
09:56AM 42.1310 -85.6660 87° East 420 483 45,000  Level FlightAware
09:56AM 42.1350 -85.5640 87° East 419 482 45,000  Level FlightAware
09:57AM 42.1390 -85.4510 87° East 419 482 45,000  Level FlightAware
09:58AM 42.1420 -85.3450 88° East 418 481 45,000  Level FlightAware
09:59AM 42.1460 -85.2390 87° East 418 481 45,000  Level FlightAware
09:59AM 42.1500 -85.1250 87° East 417 480 45,000  Level FlightAware
10:00AM 42.1530 -85.0310 88° East 417 480 45,000  Level FlightAware
10:01AM 42.1560 -84.9190 88° East 416 479 45,000  Level FlightAware
10:01AM 42.1600 -84.7980 87° East 416 479 45,000  Level FlightAware
10:02AM 42.1630 -84.7010 88° East 416 479 45,000  Level FlightAware
10:03AM 42.1660 -84.5850 88° East 415 478 45,000  Level FlightAware
10:03AM 42.1690 -84.4750 88° East 415 478 45,000  Level FlightAware
10:04AM 42.1720 -84.3710 88° East 416 479 45,000  Level FlightAware
10:05AM 42.1750 -84.2570 88° East 416 479 45,000  Level FlightAware
10:05AM 42.1770 -84.1660 88° East 416 479 45,000  Level FlightAware
10:06AM 42.1800 -84.0520 88° East 416 479 45,000  Level FlightAware
10:07AM 42.1830 -83.9340 88° East 416 479 45,000  Level FlightAware
10:08AM 42.1850 -83.8430 88° East 416 479 45,000  Level FlightAware
10:08AM 42.1870 -83.7320 89° East 417 480 45,000  Level FlightAware
10:09AM 42.1890 -83.6090 89° East 417 480 45,000  Level FlightAware
10:10AM 42.1920 -83.4390 89° East 418 481 45,000  Level FlightAware
10:11AM 42.1950 -83.3220 88° East 419 482 45,000  Level FlightAware
10:12AM 42.1960 -83.2080 89° East 419 482 45,000  Level FlightAware
10:12AM 42.1980 -83.0990 89° East 420 483 45,000  Level FlightAware
10:13AM 42.2000 -82.9790 89° East 421 484 45,000  Level FlightAware
10:14AM 42.2010 -82.8970 89° East 422 486 45,000  Level FlightAware
10:14AM 42.2020 -82.7830 89° East 422 486 45,000  Level FlightAware
10:15AM 42.2040 -82.6540 89° East 423 487 45,000  Level FlightAware
10:16AM 42.2050 -82.5550 89° East 423 487 45,000  Level FlightAware
10:17AM 42.2060 -82.4360 89° East 423 487 45,000  Level FlightAware
10:17AM 42.2070 -82.3400 89° East 423 487 45,000  Level FlightAware
10:18AM 42.2080 -82.2110 89° East 422 486 45,000  Level FlightAware
10:19AM 42.2080 -82.1410 90° East 422 486 45,000  Level FlightAware
10:19AM 42.2090 -82.0080 89° East 422 486 45,000  Level FlightAware
10:20AM 42.2100 -81.9160 89° East 423 487 45,000  Level FlightAware
10:21AM 42.2100 -81.7850 90° East 423 487 45,000  Level FlightAware
10:21AM 42.2100 -81.6990 90° East 423 487 45,000  Level FlightAware
10:22AM 42.2110 -81.5750 89° East 423 487 45,000  Level FlightAware
10:23AM 42.2110 -81.4260 90° East 421 484 45,000  Level FlightAware
10:24AM 42.2110 -81.3030 90° East 421 484 45,000  Level FlightAware
10:24AM 42.2110 -81.1790 90° East 421 484 45,000  Level FlightAware
10:25AM 42.2090 -81.0770 91° East 421 484 45,000  Level FlightAware
10:26AM 42.1980 -80.9590 97° East 420 483 45,000  Level FlightAware
10:27AM 42.1890 -80.8580 97° East 421 484 45,000  Level FlightAware
10:27AM 42.1780 -80.7390 97° East 421 484 45,000  Level FlightAware
10:28AM 42.1680 -80.6360 97° East 421 484 45,000  Level FlightAware
10:29AM 42.1570 -80.5290 98° East 421 484 45,000  Level FlightAware
10:29AM 42.1460 -80.4130 97° East 421 484 45,000  Level FlightAware
10:30AM 42.1380 -80.3300 97° East 421 484 45,000  Level FlightAware
10:31AM 42.1250 -80.2050 98° East 421 484 45,000  Level FlightAware
10:31AM 42.1140 -80.0920 97° East 420 483 45,000  Level FlightAware
10:32AM 42.1010 -79.9630 98° East 420 483 45,000  Level FlightAware
10:33AM 42.0870 -79.8310 98° East 422 486 45,000  Level FlightAware
10:34AM 42.0760 -79.7260 98° East 422 486 45,000  Level FlightAware
10:34AM 42.0660 -79.6270 98° East 421 484 45,000  Level FlightAware
10:35AM 42.0540 -79.5110 98° East 421 484 45,000  Level FlightAware
10:36AM 42.0420 -79.4030 98° East 421 484 45,000  Level FlightAware
10:37AM 42.0300 -79.2880 98° East 421 484 45,000  Level FlightAware
10:37AM 42.0180 -79.1830 99° East 421 484 45,000  Level FlightAware
10:38AM 42.0070 -79.0770 98° East 421 484 45,000  Level FlightAware
10:39AM 41.9940 -78.9630 99° East 421 484 45,000  Level FlightAware
10:39AM 41.9820 -78.8570 99° East 421 484 45,000  Level FlightAware
10:40AM 41.9690 -78.7420 99° East 421 484 45,000  Level FlightAware
10:41AM 41.9580 -78.6380 98° East 422 486 45,000 -120 Level FlightAware
10:41AM 41.9460 -78.5380 99° East 419 482 44,900 -1,020 Descending FlightAware
10:42AM 41.9320 -78.4180 99° East 413 475 43,600 -1,800 Descending FlightAware
10:43AM 41.9210 -78.3250 99° East 410 472 42,400 -1,920 Descending FlightAware
10:44AM 41.9090 -78.2240 99° East 408 470 40,900 -2,280 Descending FlightAware
10:44AM 41.8960 -78.1080 99° East 407 468 39,200 -2,580 Descending FlightAware
10:45AM 41.8820 -77.9940 99° East 398 458 37,300 -2,220 Descending FlightAware
10:46AM 41.8710 -77.9010 99° East 383 441 35,900 -1,800 Descending FlightAware
10:47AM 41.8430 -77.7700 106° East 326 375 34,000 -1,860 Descending FlightAware
10:47AM 41.8250 -77.6990 109° East 330 380 32,800 -1,860 Descending FlightAware
10:48AM 41.7990 -77.6020 110° East 349 402 31,400 -1,200 Descending FlightAware
10:49AM 41.7760 -77.5170 110° East 358 412 31,000 -300 Descending FlightAware
10:50AM 41.7550 -77.4360 109° East 355 409 31,000  Level FlightAware
10:50AM 41.7290 -77.3380 110° East 352 405 31,000 -300 Level FlightAware
10:51AM 41.7090 -77.2630 110° East 354 407 30,600 -780 Descending FlightAware
10:52AM 41.6830 -77.1660 110° East 358 412 29,900 -1,020 Descending FlightAware
10:52AM 41.6600 -77.0830 110° East 361 415 29,200 -1,020 Descending FlightAware
10:53AM 41.6390 -77.0030 109° East 362 417 28,600 -1,020 Descending FlightAware
10:54AM 41.6120 -76.9050 110° East 366 421 27,800 -1,080 Descending FlightAware
10:54AM 41.5910 -76.8300 111° Southeast 368 423 27,200 -600 Descending FlightAware
10:55AM 41.5630 -76.7250 110° East 366 421 27,000 -180 Descending FlightAware
10:56AM 41.5400 -76.6410 110° East 368 423 27,000  Level FlightAware
10:57AM 41.5140 -76.5470 110° East 369 425 27,000  Level FlightAware
10:58AM 41.4800 -76.4270 111° Southeast 369 425 27,000  Level FlightAware
10:58AM 41.4630 -76.3630 109° East 368 423 27,000  Level FlightAware
10:58AM 41.4449 -76.2991 111° Southeast 369 425 27,000 -720 Level FlightAware ADS-B
10:59AM 41.4269 -76.2346 110° East 374 430 26,400 -1,680 Descending FlightAware ADS-B
11:00AM 41.4074 -76.1650 110° East 377 434 25,300 -1,980 Descending FlightAware ADS-B
11:00AM 41.3825 -76.0763 110° East 376 433 24,000 -1,980 Descending FlightAware ADS-B
11:01AM 41.3628 -76.0065 111° Southeast 372 428 22,900 -1,980 Descending FlightAware ADS-B
11:01AM 41.3369 -75.9147 111° Southeast 361 415 21,500 -1,980 Descending FlightAware ADS-B
11:02AM 41.3176 -75.8464 111° Southeast 343 395 20,400 -1,920 Descending FlightAware ADS-B
11:03AM 41.2857 -75.7344 111° Southeast 322 371 18,600 -1,740 Descending FlightAware ADS-B
11:05AM 41.2320 -75.5650 113° Southeast 15,800 -1,740 Descending FlightAware
11:05AM 41.2040 -75.4820 114° Southeast 318 366 14,500 -1,800 Descending FlightAware
11:06AM 41.1760 -75.4010 115° Southeast 267 307 13,000 -1,740 Descending FlightAware
11:07AM 41.1590 -75.3490 113° Southeast 255 293 12,100 -1,680 Descending FlightAware
11:08AM 41.1360 -75.2800 114° Southeast 267 307 10,800 -1,680 Descending FlightAware
11:08AM 41.1130 -75.2120 114° Southeast 256 295 9,600 -1,560 Descending FlightAware
11:09AM 41.1090 -75.2010 116° Southeast 256 295 9,400 -360 Descending FlightAware
11:09AM 41.0970 -75.1660 114° Southeast 256 295 9,400  Level FlightAware
11:09AM 41.0890 -75.1420 114° Southeast 256 295 9,400  Level FlightAware
11:10AM 41.0810 -75.1180 114° Southeast 256 295 9,400  Level FlightAware
11:10AM 41.0690 -75.0810 113° Southeast 256 295 9,400 -2,340 Level FlightAware
11:11AM 41.0533 -75.0358 113° Southeast 247 284 7,100 -1,080 Descending New York Center
11:16AM 40.8580 -74.5880 113° Southeast 238 274 2,900 -720 Descending FlightAware
11:17AM 40.8410 -74.5490 120° Southeast 237 273 2,900  Level FlightAware
11:17AM 40.8330 -74.5328 123° Southeast 232 267 2,900  Level FlightAware ADS-B
11:17AM 40.8222 -74.5094 121° Southeast 233 268 2,900  Level FlightAware ADS-B
11:18AM 40.8075 -74.4769 121° Southeast 241 277 2,900  Level FlightAware ADS-B
11:18AM 40.7980 -74.4562 121° Southeast 247 284 2,900 -120 Level FlightAware ADS-B
11:19AM 40.7680 -74.3910 121° Southeast 214 246 2,800 -360 Descending FlightAware
11:19AM 40.7579 -74.3697 122° Southeast 247 284 2,500 -1,080 Descending FlightAware ADS-B
11:20AM 40.7495 -74.3514 121° Southeast 193 222 2,200 -900 Descending FlightAware ADS-B
11:20AM 40.7423 -74.3359 122° Southeast 189 217 2,000 -600 Descending FlightAware ADS-B
11:20AM 40.7346 -74.3187 121° Southeast 192 221 1,900 -240 Descending FlightAware ADS-B
11:20AM 40.7309 -74.3043 109° East 192 221 1,900  Level FlightAware ADS-B
11:21AM 40.7333 -74.2879 79° East 184 212 1,900  Level FlightAware ADS-B
11:21AM 40.7365 -74.2712 76° East 185 213 1,900  Level FlightAware ADS-B
11:21AM 40.7400 -74.2542 75° East 188 216 1,900  Level FlightAware ADS-B
11:21AM 40.7435 -74.2372 75° East 193 222 1,900  Level FlightAware ADS-B
11:22AM 40.7458 -74.2258 75° East 194 223 1,900  Level FlightAware ADS-B
11:22AM 40.7482 -74.2172 70° East 197 227 1,900 -540 Level FlightAware ADS-B
11:22AM 40.7502 -74.2129 58° Northeast 199 229 1,800 -780 Descending FlightAware ADS-B
11:22AM 40.7527 -74.2088 51° Northeast 200 230 1,800 -840 Level FlightAware ADS-B
11:22AM 40.7643 -74.1916 48° Northeast 197 227 1,500 -900 Descending FlightAware ADS-B
11:22AM 40.7690 -74.1844 49° Northeast 186 214 1,400 -300 Descending FlightAware ADS-B
11:23AM 40.7758 -74.1748 47° Northeast 176 203 1,400  Level FlightAware ADS-B
11:23AM 40.7834 -74.1631 49° Northeast 172 198 1,400  Level FlightAware ADS-B
11:23AM 40.7977 -74.1418 48° Northeast 171 197 1,400 -300 Level FlightAware ADS-B
11:23AM 40.8045 -74.1322 47° Northeast 156 180 1,200 -840 Descending FlightAware ADS-B
11:24AM 40.8211 -74.1080 48° Northeast 120 138 700 -780 Descending FlightAware ADS-B
11:24AM 40.8243 -74.1032 49° Northeast 116 133 600 -720 Descending FlightAware ADS-B
11:24AM 40.8274 -74.0984 50° Northeast 115 132 500 -720 Descending FlightAware ADS-B
11:25AM 40.8306 -74.0939 47° Northeast 113 130 400 -660 Descending FlightAware ADS-B
11:25AM 40.8373 -74.0841 48° Northeast 110 127 200 -540 Descending FlightAware ADS-B
11:25AM 40.8429 -74.0759 48° Northeast 106 122 100 -360 Descending FlightAware ADS-B